createdAt,value
2022-09-13T00:01:04.201Z,12.32
2022-09-13T00:03:31.078Z,12.31
2022-09-13T00:05:58.103Z,12.34
2022-09-13T00:08:24.781Z,12.29
2022-09-13T00:10:51.437Z,12.27
2022-09-13T00:13:18.416Z,12.33
2022-09-13T00:15:50.388Z,12.33
2022-09-13T00:18:18.495Z,12.29
2022-09-13T00:20:45.839Z,12.31
2022-09-13T00:23:13.474Z,12.28
2022-09-13T00:25:40.446Z,12.28
2022-09-13T00:28:07.686Z,12.21
2022-09-13T00:30:34.754Z,12.19
2022-09-13T00:33:04.765Z,12.18
2022-09-13T00:35:32.184Z,12.20
2022-09-13T00:38:02.120Z,12.16
2022-09-13T00:40:30.536Z,12.13
2022-09-13T00:42:57.404Z,12.14
2022-09-13T00:45:24.210Z,12.12
2022-09-13T00:47:59.345Z,12.23
2022-09-13T00:50:34.870Z,12.23
2022-09-13T00:53:39.001Z,12.16
2022-09-13T00:56:13.666Z,11.95
2022-09-13T00:58:45.502Z,11.78
2022-09-13T01:01:14.593Z,11.77
2022-09-13T01:03:43.474Z,11.75
2022-09-13T01:06:18.166Z,11.85
2022-09-13T01:08:49.109Z,11.93
2022-09-13T01:11:25.318Z,11.90
2022-09-13T01:13:52.181Z,11.92
2022-09-13T01:16:18.851Z,11.86
2022-09-13T01:18:45.523Z,11.84
2022-09-13T01:21:31.627Z,11.90
2022-09-13T01:24:04.495Z,11.93
2022-09-13T01:26:49.897Z,11.90
2022-09-13T01:29:36.231Z,11.88
2022-09-13T01:32:53.954Z,11.81
2022-09-13T01:35:35.706Z,11.79
2022-09-13T01:38:23.940Z,11.80
2022-09-13T01:40:53.520Z,11.79
2022-09-13T01:43:50.682Z,11.75
2022-09-13T01:46:54.856Z,11.73
2022-09-13T01:49:21.816Z,11.73
2022-09-13T01:52:01.691Z,11.77
2022-09-13T01:54:49.077Z,11.82
2022-09-13T01:57:40.427Z,11.83
2022-09-13T02:00:12.383Z,11.81
2022-09-13T02:02:41.926Z,11.80
2022-09-13T02:05:47.942Z,11.73
2022-09-13T02:08:40.523Z,11.76
2022-09-13T02:11:13.312Z,11.83
2022-09-13T02:13:46.536Z,11.82
2022-09-13T02:16:19.631Z,11.82
2022-09-13T02:18:54.998Z,11.71
2022-09-13T02:21:28.034Z,11.66
2022-09-13T02:24:06.619Z,11.58
2022-09-13T02:26:36.823Z,11.55
2022-09-13T02:29:10.317Z,11.50
2022-09-13T02:31:47.719Z,11.44
2022-09-13T02:34:47.088Z,11.47
2022-09-13T02:37:14.998Z,11.41
2022-09-13T02:39:47.799Z,11.43
2022-09-13T02:42:19.229Z,11.46
2022-09-13T02:44:49.904Z,11.44
2022-09-13T02:47:44.686Z,11.46
2022-09-13T02:50:28.424Z,11.41
2022-09-13T02:53:36.473Z,11.48
2022-09-13T02:56:22.065Z,11.48
2022-09-13T02:59:30.295Z,11.52
2022-09-13T03:02:03.808Z,11.47
2022-09-13T03:04:30.545Z,11.39
2022-09-13T03:06:57.187Z,11.34
2022-09-13T03:09:24.154Z,11.46
2022-09-13T03:11:50.776Z,11.50
2022-09-13T03:14:35.902Z,11.46
2022-09-13T03:17:44.126Z,11.42
2022-09-13T03:20:19.243Z,11.36
2022-09-13T03:23:13.775Z,11.33
2022-09-13T03:25:49.179Z,11.32
2022-09-13T03:28:31.847Z,11.27
2022-09-13T03:31:10.982Z,11.26
2022-09-13T03:33:59.381Z,11.25
2022-09-13T03:36:51.644Z,11.15
2022-09-13T03:39:27.253Z,11.10
2022-09-13T03:42:00.030Z,11.07
2022-09-13T03:44:29.575Z,11.04
2022-09-13T03:46:59.069Z,11.10
2022-09-13T03:49:27.483Z,11.14
2022-09-13T03:51:54.897Z,11.11
2022-09-13T03:54:32.564Z,11.18
2022-09-13T03:57:11.444Z,11.37
2022-09-13T03:59:41.821Z,11.48
2022-09-13T04:02:11.218Z,11.54
2022-09-13T04:04:42.744Z,11.48
2022-09-13T04:07:11.526Z,11.42
2022-09-13T04:09:38.222Z,11.39
2022-09-13T04:12:05.194Z,11.31
2022-09-13T04:14:31.895Z,11.24
2022-09-13T04:16:58.867Z,11.13
2022-09-13T04:19:26.188Z,11.09
2022-09-13T04:21:54.785Z,11.04
2022-09-13T04:24:25.414Z,11.01
2022-09-13T04:26:53.678Z,10.89
2022-09-13T04:29:21.780Z,10.98
2022-09-13T04:31:50.027Z,11.00
2022-09-13T04:34:18.587Z,11.02
2022-09-13T04:36:46.196Z,11.06
2022-09-13T04:39:16.129Z,11.10
2022-09-13T04:41:46.025Z,11.08
2022-09-13T04:44:14.214Z,10.98
2022-09-13T04:46:41.633Z,10.77
2022-09-13T04:49:10.715Z,10.67
2022-09-13T04:51:37.459Z,10.48
2022-09-13T04:54:04.481Z,10.64
2022-09-13T04:56:31.125Z,10.73
2022-09-13T04:58:57.771Z,10.78
2022-09-13T05:01:27.951Z,10.73
2022-09-13T05:03:55.543Z,10.72
2022-09-13T05:06:22.972Z,10.71
2022-09-13T05:08:53.008Z,10.71
2022-09-13T05:11:19.616Z,10.76
2022-09-13T05:13:53.120Z,10.86
2022-09-13T05:16:20.317Z,10.93
2022-09-13T05:18:47.224Z,11.06
2022-09-13T05:21:14.448Z,11.22
2022-09-13T05:23:41.187Z,11.28
2022-09-13T05:26:08.621Z,11.32
2022-09-13T05:28:36.787Z,11.40
2022-09-13T05:31:06.341Z,11.54
2022-09-13T05:33:38.497Z,11.66
2022-09-13T05:36:06.063Z,11.75
2022-09-13T05:38:33.533Z,11.94
2022-09-13T05:41:02.661Z,12.16
2022-09-13T05:43:32.279Z,12.41
2022-09-13T05:46:07.198Z,12.55
2022-09-13T05:48:35.455Z,12.57
2022-09-13T05:51:22.629Z,12.77
2022-09-13T05:53:51.763Z,12.98
2022-09-13T05:56:21.202Z,13.27
2022-09-13T05:58:49.507Z,13.37
2022-09-13T06:01:19.676Z,13.38
2022-09-13T06:03:50.734Z,13.48
2022-09-13T06:06:17.626Z,13.63
2022-09-13T06:08:44.805Z,13.73
2022-09-13T06:11:13.366Z,13.77
2022-09-13T06:13:40.768Z,13.62
2022-09-13T06:16:09.894Z,13.70
2022-09-13T06:18:37.116Z,13.83
2022-09-13T06:21:05.926Z,13.87
2022-09-13T06:23:32.589Z,13.94
2022-09-13T06:26:07.752Z,14.03
2022-09-13T06:28:37.429Z,14.11
2022-09-13T06:31:12.865Z,14.26
2022-09-13T06:33:42.048Z,14.26
2022-09-13T06:36:20.392Z,14.27
2022-09-13T06:38:49.040Z,14.30
2022-09-13T06:41:21.910Z,14.31
2022-09-13T06:43:54.420Z,14.37
2022-09-13T06:46:24.915Z,14.41
2022-09-13T06:48:55.635Z,14.40
2022-09-13T06:51:24.651Z,14.47
2022-09-13T06:53:53.360Z,14.47
2022-09-13T06:56:22.641Z,14.63
2022-09-13T06:58:51.957Z,14.73
2022-09-13T07:01:21.332Z,14.81
2022-09-13T07:04:09.350Z,14.94
2022-09-13T07:06:41.414Z,15.23
2022-09-13T07:09:10.794Z,15.69
2022-09-13T07:11:39.112Z,16.08
2022-09-13T07:14:06.940Z,16.36
2022-09-13T07:16:36.306Z,16.56
2022-09-13T07:19:07.958Z,16.84
2022-09-13T07:21:35.639Z,17.15
2022-09-13T07:24:02.497Z,17.32
2022-09-13T07:26:29.124Z,17.47
2022-09-13T07:28:59.368Z,17.69
2022-09-13T07:31:29.225Z,17.83
2022-09-13T07:34:04.450Z,18.15
2022-09-13T07:36:33.631Z,18.38
2022-09-13T07:39:01.617Z,18.56
2022-09-13T07:41:30.378Z,18.86
2022-09-13T07:43:59.338Z,19.10
2022-09-13T07:46:28.546Z,19.39
2022-09-13T07:48:57.021Z,19.67
2022-09-13T07:51:32.618Z,19.74
2022-09-13T07:54:03.062Z,19.61
2022-09-13T07:56:32.281Z,19.29
2022-09-13T07:59:01.022Z,18.98
2022-09-13T08:01:34.736Z,18.93
2022-09-13T08:04:04.862Z,18.92
2022-09-13T08:06:32.905Z,18.89
2022-09-13T08:09:00.007Z,19.06
2022-09-13T08:11:37.060Z,19.41
2022-09-13T08:14:05.539Z,19.74
2022-09-13T08:16:32.533Z,20.09
2022-09-13T08:19:02.088Z,20.82
2022-09-13T08:21:36.387Z,21.22
2022-09-13T08:24:04.270Z,21.41
2022-09-13T08:26:33.096Z,21.56
2022-09-13T08:29:02.300Z,21.77
2022-09-13T08:31:29.722Z,22.05
2022-09-13T08:33:57.833Z,22.32
2022-09-13T08:36:26.344Z,22.70
2022-09-13T08:38:55.917Z,23.14
2022-09-13T08:41:45.382Z,23.36
2022-09-13T08:44:18.170Z,23.51
2022-09-13T08:46:46.841Z,23.64
2022-09-13T08:49:40.818Z,23.96
2022-09-13T08:52:33.231Z,24.07
2022-09-13T08:55:03.974Z,23.99
2022-09-13T08:58:00.502Z,24.33
2022-09-13T09:00:38.230Z,24.62
2022-09-13T09:03:18.635Z,24.62
2022-09-13T09:05:50.889Z,24.92
2022-09-13T09:08:34.583Z,25.20
2022-09-13T09:11:27.619Z,25.52
2022-09-13T09:14:14.308Z,25.54
2022-09-13T09:16:55.730Z,25.53
2022-09-13T09:19:28.597Z,25.59
2022-09-13T09:21:55.353Z,25.42
2022-09-13T09:24:25.561Z,25.21
2022-09-13T09:27:00.043Z,25.21
2022-09-13T09:29:33.495Z,25.20
2022-09-13T09:32:20.161Z,25.46
2022-09-13T09:34:56.122Z,25.70
2022-09-13T09:37:28.810Z,25.99
2022-09-13T09:40:03.143Z,26.14
2022-09-13T09:42:33.670Z,25.91
2022-09-13T09:45:24.448Z,26.35
2022-09-13T09:47:53.261Z,26.37
2022-09-13T09:50:23.305Z,26.24
2022-09-13T09:52:59.242Z,26.07
2022-09-13T09:55:50.442Z,25.96
2022-09-13T09:58:18.966Z,25.98
2022-09-13T10:00:59.158Z,25.82
2022-09-13T10:03:31.846Z,25.48
2022-09-13T10:06:22.113Z,24.95
2022-09-13T10:09:02.594Z,24.79
2022-09-13T10:12:02.413Z,24.51
2022-09-13T10:14:37.522Z,24.33
2022-09-13T10:17:24.025Z,24.43
2022-09-13T10:20:02.185Z,24.58
2022-09-13T10:22:31.286Z,24.48
2022-09-13T10:25:14.700Z,24.40
2022-09-13T10:27:51.795Z,24.51
2022-09-13T10:30:39.801Z,24.65
2022-09-13T10:33:14.314Z,24.41
2022-09-13T10:35:41.288Z,24.22
2022-09-13T10:38:24.534Z,24.35
2022-09-13T10:40:51.332Z,24.50
2022-09-13T10:43:21.950Z,24.31
2022-09-13T10:45:52.241Z,23.91
2022-09-13T10:48:20.313Z,24.25
2022-09-13T10:51:08.751Z,24.79
2022-09-13T10:53:45.382Z,24.79
2022-09-13T10:56:21.482Z,24.79
2022-09-13T10:58:48.142Z,25.21
2022-09-13T11:01:40.648Z,25.61
2022-09-13T11:04:10.522Z,25.40
2022-09-13T11:06:59.656Z,25.81
2022-09-13T11:09:42.998Z,25.74
2022-09-13T11:12:46.765Z,25.42
2022-09-13T11:15:31.258Z,25.35
2022-09-13T11:18:30.082Z,25.28
2022-09-13T11:21:26.860Z,25.59
2022-09-13T11:24:14.434Z,25.99
2022-09-13T11:27:02.293Z,26.32
2022-09-13T11:29:47.456Z,26.61
2022-09-13T11:32:23.214Z,26.95
2022-09-13T11:35:27.542Z,26.78
2022-09-13T11:37:54.594Z,26.50
2022-09-13T11:40:36.547Z,26.70
2022-09-13T11:43:41.193Z,26.59
2022-09-13T11:46:25.280Z,26.92
2022-09-13T11:49:36.604Z,26.73
2022-09-13T11:52:14.494Z,26.92
2022-09-13T11:54:50.739Z,27.09
2022-09-13T11:57:25.154Z,27.16
2022-09-13T11:59:58.902Z,27.45
2022-09-13T12:02:47.339Z,27.50
2022-09-13T12:05:22.539Z,27.42
2022-09-13T12:07:55.179Z,27.11
2022-09-13T12:10:30.065Z,27.26
2022-09-13T12:13:07.242Z,27.30
2022-09-13T12:15:40.785Z,27.64
2022-09-13T12:18:26.438Z,27.28
2022-09-13T12:21:00.985Z,27.26
2022-09-13T12:23:36.098Z,27.72
2022-09-13T12:26:13.345Z,27.93
2022-09-13T12:28:49.557Z,27.87
2022-09-13T12:31:24.292Z,27.47
2022-09-13T12:33:51.225Z,27.58
2022-09-13T12:36:38.716Z,27.28
2022-09-13T12:39:24.067Z,26.84
2022-09-13T12:42:09.576Z,27.01
2022-09-13T12:44:57.899Z,27.17
2022-09-13T12:47:55.971Z,27.14
2022-09-13T12:50:46.144Z,27.39
2022-09-13T12:53:50.884Z,27.59
2022-09-13T12:56:27.834Z,27.18
2022-09-13T12:59:10.010Z,27.25
2022-09-13T13:01:36.931Z,26.87
2022-09-13T13:04:22.305Z,27.01
2022-09-13T13:06:57.198Z,27.33
2022-09-13T13:09:44.399Z,27.16
2022-09-13T13:12:29.195Z,27.10
2022-09-13T13:14:57.093Z,27.19
2022-09-13T13:17:48.118Z,27.59
2022-09-13T13:20:39.621Z,27.96
2022-09-13T13:23:33.158Z,27.68
2022-09-13T13:26:23.567Z,27.34
2022-09-13T13:29:13.140Z,27.25
2022-09-13T13:31:41.946Z,27.15
2022-09-13T13:34:14.712Z,27.24
2022-09-13T13:36:41.313Z,27.14
2022-09-13T13:39:35.019Z,26.84
2022-09-13T13:42:10.367Z,26.71
2022-09-13T13:44:58.050Z,26.88
2022-09-13T13:47:30.551Z,26.55
2022-09-13T13:50:00.214Z,26.22
2022-09-13T13:52:26.855Z,26.10
2022-09-13T13:55:31.544Z,26.06
2022-09-13T13:58:05.919Z,26.09
2022-09-13T14:00:35.181Z,26.03
2022-09-13T14:03:01.796Z,25.84
2022-09-13T14:05:46.756Z,25.80
2022-09-13T14:08:28.690Z,25.81
2022-09-13T14:11:15.168Z,25.71
2022-09-13T14:13:47.895Z,25.53
2022-09-13T14:16:17.862Z,25.26
2022-09-13T14:18:52.675Z,25.16
2022-09-13T14:21:30.311Z,25.18
2022-09-13T14:24:08.255Z,25.11
2022-09-13T14:26:35.349Z,25.05
2022-09-13T14:29:06.776Z,25.39
2022-09-13T14:31:33.576Z,25.34
2022-09-13T14:34:00.383Z,25.17
2022-09-13T14:36:27.874Z,25.25
2022-09-13T14:39:00.575Z,25.32
2022-09-13T14:41:33.838Z,25.26
2022-09-13T14:44:28.133Z,24.97
2022-09-13T14:47:04.594Z,24.82
2022-09-13T14:49:38.933Z,24.74
2022-09-13T14:52:15.452Z,24.59
2022-09-13T14:54:51.206Z,24.60
2022-09-13T14:57:30.387Z,24.64
2022-09-13T15:00:02.093Z,24.47
2022-09-13T15:02:37.612Z,24.44
2022-09-13T15:05:11.767Z,24.40
2022-09-13T15:07:40.114Z,24.39
2022-09-13T15:10:12.551Z,24.41
2022-09-13T15:13:08.004Z,24.36
2022-09-13T15:15:39.417Z,24.46
2022-09-13T15:18:09.075Z,24.49
2022-09-13T15:20:45.222Z,24.40
2022-09-13T15:23:16.309Z,24.36
2022-09-13T15:25:53.292Z,24.32
2022-09-13T15:28:23.243Z,24.19
2022-09-13T15:30:51.699Z,24.30
2022-09-13T15:33:24.987Z,24.32
2022-09-13T15:35:53.710Z,24.20
2022-09-13T15:38:31.792Z,24.25
2022-09-13T15:41:18.216Z,24.29
2022-09-13T15:43:47.868Z,24.24
2022-09-13T15:46:16.842Z,24.15
2022-09-13T15:48:52.039Z,24.04
2022-09-13T15:51:19.114Z,23.88
2022-09-13T15:53:46.986Z,23.73
2022-09-13T15:56:18.025Z,23.57
2022-09-13T15:58:44.665Z,23.51
2022-09-13T16:01:13.402Z,23.46
2022-09-13T16:03:40.651Z,23.38
2022-09-13T16:06:09.370Z,23.46
2022-09-13T16:08:36.871Z,23.49
2022-09-13T16:11:03.705Z,23.33
2022-09-13T16:13:30.314Z,23.27
2022-09-13T16:15:58.056Z,23.27
2022-09-13T16:18:25.482Z,23.22
2022-09-13T16:20:52.142Z,23.08
2022-09-13T16:23:18.765Z,23.12
2022-09-13T16:25:45.598Z,23.10
2022-09-13T16:28:21.175Z,23.10
2022-09-13T16:30:48.609Z,23.03
2022-09-13T16:33:15.303Z,22.94
2022-09-13T16:35:41.993Z,22.96
2022-09-13T16:38:10.443Z,22.97
2022-09-13T16:40:41.665Z,22.95
2022-09-13T16:43:09.120Z,22.86
2022-09-13T16:45:40.369Z,22.79
2022-09-13T16:48:08.494Z,22.81
2022-09-13T16:50:36.113Z,22.75
2022-09-13T16:53:02.862Z,22.69
2022-09-13T16:55:30.243Z,22.60
2022-09-13T16:57:56.921Z,22.50
2022-09-13T17:00:28.614Z,22.56
2022-09-13T17:02:56.001Z,22.51
2022-09-13T17:05:24.482Z,22.44
2022-09-13T17:07:52.055Z,22.28
2022-09-13T17:10:18.961Z,22.21
2022-09-13T17:12:45.596Z,22.29
2022-09-13T17:15:12.221Z,22.17
2022-09-13T17:17:38.882Z,22.10
2022-09-13T17:20:10.177Z,22.19
2022-09-13T17:22:37.459Z,22.12
2022-09-13T17:25:07.674Z,22.11
2022-09-13T17:27:34.431Z,21.98
2022-09-13T17:30:02.411Z,21.87
2022-09-13T17:32:29.117Z,21.82
2022-09-13T17:34:55.785Z,21.75
2022-09-13T17:37:22.445Z,21.74
2022-09-13T17:39:49.357Z,21.80
2022-09-13T17:42:19.032Z,21.74
2022-09-13T17:44:48.079Z,21.76
2022-09-13T17:47:14.723Z,21.68
2022-09-13T17:49:41.619Z,21.58
2022-09-13T17:52:08.303Z,21.60
2022-09-13T17:54:35.018Z,21.49
2022-09-13T17:57:01.663Z,21.41
2022-09-13T17:59:28.448Z,21.31
2022-09-13T18:01:57.992Z,21.22
2022-09-13T18:04:24.791Z,21.19
2022-09-13T18:06:52.722Z,21.25
2022-09-13T18:09:19.940Z,21.22
2022-09-13T18:11:46.935Z,21.23
2022-09-13T18:14:15.495Z,21.20
2022-09-13T18:16:43.220Z,21.12
2022-09-13T18:19:10.029Z,20.85
2022-09-13T18:21:36.710Z,20.57
2022-09-13T18:24:04.164Z,20.49
2022-09-13T18:26:32.621Z,20.30
2022-09-13T18:29:05.761Z,20.05
2022-09-13T18:31:34.405Z,19.81
2022-09-13T18:34:05.500Z,19.84
2022-09-13T18:36:36.215Z,19.75
2022-09-13T18:39:04.957Z,19.71
2022-09-13T18:41:34.676Z,19.80
2022-09-13T18:44:02.027Z,19.73
2022-09-13T18:46:31.727Z,19.82
2022-09-13T18:48:58.945Z,19.68
2022-09-13T18:51:28.759Z,19.81
2022-09-13T18:53:56.067Z,19.84
2022-09-13T18:56:24.303Z,19.80
2022-09-13T18:58:55.221Z,19.84
2022-09-13T19:01:28.726Z,19.86
2022-09-13T19:03:57.959Z,19.80
2022-09-13T19:06:26.196Z,19.78
2022-09-13T19:08:55.477Z,19.76
2022-09-13T19:11:45.160Z,19.78
2022-09-13T19:14:14.870Z,19.78
2022-09-13T19:16:41.972Z,19.78
2022-09-13T19:19:11.757Z,19.91
2022-09-13T19:21:38.506Z,19.84
2022-09-13T19:24:10.148Z,19.85
2022-09-13T19:26:40.519Z,19.95
2022-09-13T19:29:11.329Z,19.79
2022-09-13T19:34:26.090Z,19.32
2022-09-13T19:36:57.920Z,19.14
2022-09-13T19:39:29.247Z,18.98
2022-09-13T19:41:57.049Z,18.79
2022-09-13T19:44:23.771Z,18.66
2022-09-13T19:47:06.913Z,18.67
2022-09-13T19:49:38.222Z,18.65
2022-09-13T19:52:05.814Z,18.59
2022-09-13T19:54:33.232Z,18.67
2022-09-13T19:57:01.285Z,18.65
2022-09-13T19:59:28.850Z,18.60
2022-09-13T20:01:58.859Z,18.64
2022-09-13T20:04:26.251Z,18.64
2022-09-13T20:06:53.514Z,18.66
2022-09-13T20:09:21.426Z,18.67
2022-09-13T20:11:49.023Z,18.68
2022-09-13T20:14:18.738Z,18.61
2022-09-13T20:16:46.794Z,18.64
2022-09-13T20:22:07.503Z,18.61
2022-09-13T20:24:34.166Z,18.54
2022-09-13T20:27:01.264Z,18.47
2022-09-13T20:29:28.240Z,18.54
2022-09-13T20:31:55.577Z,18.50
2022-09-13T20:34:22.371Z,18.43
2022-09-13T20:36:49.083Z,18.43
2022-09-13T20:39:16.047Z,18.43
2022-09-13T20:41:44.438Z,18.41
2022-09-13T20:44:12.379Z,18.36
2022-09-13T20:46:40.743Z,18.32
2022-09-13T20:49:09.175Z,18.27
2022-09-13T20:51:37.482Z,18.28
2022-09-13T20:54:05.416Z,18.29
2022-09-13T20:56:33.951Z,18.37
2022-09-13T20:59:01.805Z,18.32
2022-09-13T21:01:34.093Z,18.32
2022-09-13T21:04:01.575Z,18.41
2022-09-13T21:06:30.336Z,18.40
2022-09-13T21:09:00.296Z,18.38
2022-09-13T21:11:32.796Z,18.34
2022-09-13T21:14:04.920Z,18.28
2022-09-13T21:16:34.617Z,18.26
2022-09-13T21:19:02.088Z,18.26
2022-09-13T21:21:34.926Z,18.27
2022-09-13T21:24:05.927Z,18.23
2022-09-13T21:26:33.337Z,18.26
2022-09-13T21:29:00.753Z,18.29
2022-09-13T21:31:30.378Z,18.28
2022-09-13T21:34:02.667Z,18.34
2022-09-13T21:36:30.601Z,18.38
2022-09-13T21:38:58.011Z,18.40
2022-09-13T21:41:26.355Z,18.53
2022-09-13T21:43:53.841Z,18.57
2022-09-13T21:46:32.077Z,18.68
2022-09-13T21:49:00.890Z,18.77
2022-09-13T21:51:30.914Z,18.83
2022-09-13T21:53:59.560Z,18.86
2022-09-13T21:56:28.265Z,18.92
2022-09-13T21:59:00.977Z,18.93
2022-09-13T22:01:32.844Z,18.95
2022-09-13T22:03:59.650Z,18.95
2022-09-13T22:06:30.292Z,18.94
2022-09-13T22:09:01.852Z,18.98
2022-09-13T22:11:31.270Z,18.95
2022-09-13T22:13:59.708Z,18.88
2022-09-13T22:16:31.441Z,18.94
2022-09-13T22:19:04.343Z,18.90
2022-09-13T22:21:36.570Z,18.94
2022-09-13T22:24:04.917Z,18.93
2022-09-13T22:26:34.582Z,18.97
2022-09-13T22:29:01.571Z,18.97
2022-09-13T22:31:32.145Z,19.02
2022-09-13T22:34:00.627Z,19.03
2022-09-13T22:36:28.362Z,18.97
2022-09-13T22:38:55.615Z,18.91
2022-09-13T22:41:29.001Z,18.76
2022-09-13T22:43:56.318Z,18.52
2022-09-13T22:46:27.713Z,18.50
2022-09-13T22:48:55.466Z,18.44
2022-09-13T22:51:23.379Z,18.49
2022-09-13T22:53:51.759Z,18.52
2022-09-13T22:56:46.245Z,18.52
2022-09-13T22:59:15.410Z,18.60
2022-09-13T23:01:42.986Z,18.62
2022-09-13T23:04:10.641Z,18.60
2022-09-13T23:06:37.935Z,18.61
2022-09-13T23:09:07.304Z,18.62
2022-09-13T23:11:36.954Z,18.50
2022-09-13T23:14:10.112Z,18.56
2022-09-13T23:16:45.640Z,18.50
2022-09-13T23:19:13.676Z,18.43
2022-09-13T23:21:41.527Z,18.40
2022-09-13T23:24:12.506Z,18.36
2022-09-13T23:26:40.187Z,18.35
2022-09-13T23:29:07.590Z,18.30
2022-09-13T23:31:36.665Z,18.24
2022-09-13T23:34:06.626Z,18.18
2022-09-13T23:36:37.397Z,18.19
2022-09-13T23:39:08.170Z,18.16
2022-09-13T23:41:35.745Z,18.15
2022-09-13T23:44:03.866Z,18.18
2022-09-13T23:46:31.397Z,18.19
2022-09-13T23:48:58.130Z,18.22
2022-09-13T23:51:26.494Z,18.23
2022-09-13T23:53:57.232Z,18.26
2022-09-13T23:56:26.011Z,18.28
2022-09-13T23:58:53.049Z,18.24
